Ramer, Alabama
Current Conditions -  °F | °C
As of 7:53 PM on Saturday 22 Nov 2014 (Local Time) from KTOI Reporting Station
Light Rain Light Rain  
Wind Chill: 14°   Ceiling: 2000
Heat Index: 14°   Visibility: 9mi
Dew Point: 12°   Wind: 7mph
Humidity: 89%   Direction: 80°E
Pressure: 30.16"   Gusts: NA
Location:  32.05°N, 86.22°W
Report Text: KTOI 230153Z AUTO 08006KT 9SM -RA OVC020 14/12 A3016 RMK AO2 RAB0059 SLP211 P0000 T01390122
Loading
Personal Weather Stations






























Interactive Weather Map New forecast layout! Learn more

10-Day Weather Forecast

Advertisements
Track Severe Weather on mobile